Time;durP1;ratioP1;P1;durP2;ratioP2;P2;SDS_P1;SDS_P2;PMS_P1;PMS_P2;Temp;Humidity;BMP_temperature;BMP_pressure;BME280_temperature;BME280_humidity;BME280_pressure;Samples;Min_cycle;Max_cycle;Signal;HPM_P1;HPM_P2
2023/05/04 00:00:45;;;;;;;7.07;3.20;;;;;;;3.06;nan;102007.16;5046031;28;20041;-84
2023/05/04 00:03:12;;;;;;;8.20;3.20;;;;;;;3.04;nan;102003.63;5064812;28;20044;-81
2023/05/04 00:05:39;;;;;;;6.43;3.67;;;;;;;3.06;nan;101996.72;5068411;28;20032;-83
2023/05/04 00:08:06;;;;;;;8.27;2.67;;;;;;;2.96;nan;101995.53;5058919;28;20032;-85
2023/05/04 00:10:33;;;;;;;4.67;2.70;;;;;;;2.94;nan;101999.81;5071297;28;20047;-84
2023/05/04 00:13:00;;;;;;;9.27;3.10;;;;;;;2.91;nan;101991.00;5039015;28;20044;-81
2023/05/04 00:15:29;;;;;;;7.90;2.90;;;;;;;2.87;nan;101995.25;5073098;28;20037;-81
2023/05/04 00:17:56;;;;;;;9.57;3.37;;;;;;;2.78;nan;101995.84;5038620;28;20041;-82
2023/05/04 00:20:23;;;;;;;5.13;2.50;;;;;;;2.69;nan;101987.72;5038889;28;20049;-82
2023/05/04 00:22:49;;;;;;;7.43;2.90;;;;;;;2.75;nan;101998.31;5035080;28;20037;-81
2023/05/04 00:25:16;;;;;;;6.57;3.20;;;;;;;2.75;nan;101982.66;5048055;28;20519;-84
2023/05/04 00:27:43;;;;;;;5.80;3.20;;;;;;;2.65;nan;101990.16;5038669;28;20056;-83
2023/05/04 00:30:10;;;;;;;8.73;3.13;;;;;;;2.62;nan;101996.16;5038713;28;20036;-81
2023/05/04 00:32:37;;;;;;;4.90;2.80;;;;;;;2.64;nan;101991.88;5043069;28;20036;-81
2023/05/04 00:35:04;;;;;;;6.43;2.63;;;;;;;2.63;nan;101986.63;5054305;28;20044;-81
2023/05/04 00:37:31;;;;;;;5.17;2.73;;;;;;;2.63;nan;101987.50;5045370;28;20037;-83
2023/05/04 00:39:58;;;;;;;5.23;3.00;;;;;;;2.53;nan;101985.44;5037881;28;20043;-81
2023/05/04 00:42:25;;;;;;;6.57;3.70;;;;;;;2.44;nan;101985.13;5050183;28;20043;-83
2023/05/04 00:44:52;;;;;;;8.20;3.77;;;;;;;2.47;nan;101986.09;5017714;28;20041;-83
2023/05/04 00:47:20;;;;;;;8.17;3.20;;;;;;;2.41;nan;101985.00;5017401;28;20036;-88
2023/05/04 00:49:47;;;;;;;5.93;2.60;;;;;;;2.33;nan;101979.53;5069982;28;20043;-80
2023/05/04 00:52:14;;;;;;;6.03;3.17;;;;;;;2.43;nan;101979.00;5043420;28;20079;-82
2023/05/04 00:54:42;;;;;;;9.43;3.17;;;;;;;2.29;nan;101982.00;5045224;28;20392;-82
2023/05/04 00:57:09;;;;;;;5.93;3.43;;;;;;;2.28;nan;101980.22;5033824;28;20516;-83
2023/05/04 00:59:36;;;;;;;5.13;2.80;;;;;;;2.20;nan;101983.44;5032710;28;20037;-84
2023/05/04 01:02:03;;;;;;;6.20;2.77;;;;;;;2.37;nan;101970.97;5036746;28;20070;-80
2023/05/04 01:04:30;;;;;;;6.83;2.33;;;;;;;2.29;nan;101976.78;5053352;28;20041;-82
2023/05/04 01:07:42;;;;;;;6.33;3.23;;;;;;;2.15;nan;101976.28;5038535;28;20041;-80
2023/05/04 01:10:11;;;;;;;6.10;2.57;;;;;;;2.18;nan;101976.38;4949682;28;20411;-82
2023/05/04 01:12:46;;;;;;;6.90;2.37;;;;;;;2.24;nan;101971.38;4971898;28;20034;-79
2023/05/04 01:15:14;;;;;;;4.60;3.13;;;;;;;2.21;nan;101977.38;5017434;28;20394;-82
2023/05/04 01:17:41;;;;;;;6.77;3.00;;;;;;;2.18;nan;101971.16;5033364;28;20051;-84
2023/05/04 01:20:09;;;;;;;10.47;3.47;;;;;;;2.17;nan;101972.88;5051589;28;20046;-80
2023/05/04 01:22:37;;;;;;;8.80;3.40;;;;;;;2.11;nan;101972.69;5052897;28;20031;-80
2023/05/04 01:25:04;;;;;;;7.47;3.60;;;;;;;2.01;nan;101975.78;5025434;28;20045;-82
2023/05/04 01:27:45;;;;;;;5.63;2.87;;;;;;;1.98;nan;101975.69;5038224;28;20044;-80
2023/05/04 01:30:23;;;;;;;5.60;2.57;;;;;;;1.89;nan;101972.75;5065111;28;20047;-84
2023/05/04 01:32:50;;;;;;;6.33;3.20;;;;;;;1.86;nan;101978.75;5048182;28;20025;-82
2023/05/04 01:35:18;;;;;;;7.90;3.13;;;;;;;1.96;nan;101972.16;5050832;28;20221;-80
2023/05/04 01:37:45;;;;;;;8.10;2.80;;;;;;;1.90;nan;101975.41;5051627;28;20032;-81
2023/05/04 01:40:12;;;;;;;6.87;3.43;;;;;;;1.83;nan;101972.53;5033564;28;20049;-82
2023/05/04 01:42:39;;;;;;;4.13;3.00;;;;;;;1.86;nan;101968.34;5051917;28;20037;-80
2023/05/04 01:45:06;;;;;;;9.50;3.00;;;;;;;1.91;nan;101971.97;5036306;28;20046;-82
2023/05/04 01:47:34;;;;;;;4.97;3.07;;;;;;;1.83;nan;101959.50;5036318;28;20055;-80
2023/05/04 01:50:01;;;;;;;5.23;3.10;;;;;;;1.81;nan;101961.19;5032442;28;20037;-83
2023/05/04 01:52:29;;;;;;;7.80;3.40;;;;;;;1.72;nan;101960.84;5031791;28;20041;-81
2023/05/04 01:54:56;;;;;;;5.50;3.30;;;;;;;1.63;nan;101959.69;5050781;28;20044;-83
2023/05/04 01:57:23;;;;;;;5.10;3.50;;;;;;;1.54;nan;101961.06;5051798;28;20048;-81
2023/05/04 01:59:49;;;;;;;6.43;2.83;;;;;;;1.57;nan;101962.06;5057212;28;20051;-84
2023/05/04 02:02:17;;;;;;;6.87;3.33;;;;;;;1.52;nan;101955.81;5067784;28;20063;-81
2023/05/04 02:04:43;;;;;;;5.50;3.03;;;;;;;1.55;nan;101953.31;5040158;28;20044;-80
2023/05/04 02:07:11;;;;;;;5.10;2.63;;;;;;;1.52;nan;101952.31;5047736;28;20044;-85
2023/05/04 02:09:38;;;;;;;5.97;3.70;;;;;;;1.60;nan;101954.38;5051560;28;20047;-82
2023/05/04 02:12:05;;;;;;;5.90;3.10;;;;;;;1.57;nan;101961.16;5037726;28;20047;-79
2023/05/04 02:14:32;;;;;;;7.53;2.83;;;;;;;1.62;nan;101962.25;5049502;28;20047;-84
2023/05/04 02:16:59;;;;;;;6.00;2.73;;;;;;;1.31;nan;101952.38;5068758;28;20048;-80
2023/05/04 02:19:26;;;;;;;5.27;2.80;;;;;;;1.31;nan;101949.78;5048573;28;20041;-83
2023/05/04 02:21:55;;;;;;;6.80;3.10;;;;;;;1.25;nan;101949.53;5050085;28;20043;-82
2023/05/04 02:24:22;;;;;;;7.10;2.83;;;;;;;1.24;nan;101947.78;5048052;28;20043;-80
2023/05/04 02:26:49;;;;;;;8.20;2.80;;;;;;;1.11;nan;101947.31;5035427;28;20512;-82
2023/05/04 02:29:15;;;;;;;6.67;3.10;;;;;;;1.12;nan;101951.69;5047005;28;20032;-80
2023/05/04 02:31:42;;;;;;;5.43;2.70;;;;;;;1.18;nan;101952.72;5035491;28;20041;-83
2023/05/04 02:34:09;;;;;;;6.63;2.90;;;;;;;1.21;nan;101952.88;5044483;28;20037;-81
2023/05/04 02:36:36;;;;;;;9.00;3.07;;;;;;;1.17;nan;101948.38;5040157;28;20044;-83
2023/05/04 02:39:03;;;;;;;7.13;3.60;;;;;;;1.11;nan;101952.53;5006346;28;20391;-81
2023/05/04 02:41:30;;;;;;;8.30;3.50;;;;;;;1.10;nan;101945.53;5029059;28;20036;-81
2023/05/04 02:43:57;;;;;;;11.23;3.77;;;;;;;1.05;nan;101941.88;5037591;28;20043;-83
2023/05/04 02:46:25;;;;;;;6.20;2.93;;;;;;;1.04;nan;101940.09;5048696;28;20041;-81
2023/05/04 02:48:52;;;;;;;5.97;2.80;;;;;;;1.08;nan;101943.69;5042881;28;20033;-81
2023/05/04 02:51:19;;;;;;;5.37;2.93;;;;;;;1.13;nan;101943.06;5037256;28;20048;-84
2023/05/04 02:53:46;;;;;;;8.27;2.90;;;;;;;1.08;nan;101943.69;5035456;28;20039;-80
2023/05/04 02:56:13;;;;;;;5.70;3.10;;;;;;;0.98;nan;101945.06;5042825;28;20036;-84
2023/05/04 02:58:40;;;;;;;7.97;3.87;;;;;;;0.97;nan;101942.41;5029893;28;20036;-80
2023/05/04 03:01:07;;;;;;;7.20;3.57;;;;;;;0.89;nan;101947.31;5053691;28;20033;-83
2023/05/04 03:03:34;;;;;;;5.87;3.20;;;;;;;0.79;nan;101940.84;5036704;28;20037;-82
2023/05/04 03:06:01;;;;;;;7.03;3.57;;;;;;;0.83;nan;101937.53;5038940;28;20051;-80
2023/05/04 03:08:29;;;;;;;6.80;3.70;;;;;;;0.73;nan;101943.19;5038624;28;20055;-82
2023/05/04 03:10:55;;;;;;;4.40;2.83;;;;;;;0.68;nan;101934.34;5064295;28;20040;-84
2023/05/04 03:13:22;;;;;;;7.47;3.60;;;;;;;0.73;nan;101944.91;5036042;28;20389;-81
2023/05/04 03:15:49;;;;;;;6.70;3.00;;;;;;;0.72;nan;101940.53;5055276;28;20063;-84
2023/05/04 03:18:16;;;;;;;8.30;3.30;;;;;;;0.71;nan;101947.47;5048343;28;20047;-80
2023/05/04 03:20:43;;;;;;;6.90;3.27;;;;;;;0.69;nan;101950.84;5046249;28;20726;-81
2023/05/04 03:23:10;;;;;;;8.67;3.73;;;;;;;0.69;nan;101945.63;5053388;28;20034;-80
2023/05/04 03:25:37;;;;;;;6.70;3.83;;;;;;;0.73;nan;101942.31;5053185;28;20042;-80
2023/05/04 03:28:04;;;;;;;7.03;3.20;;;;;;;0.69;nan;101945.63;5044828;28;20040;-81
2023/05/04 03:30:31;;;;;;;8.67;3.43;;;;;;;0.62;nan;101944.50;5074066;28;20038;-80
2023/05/04 03:32:58;;;;;;;8.73;3.63;;;;;;;0.65;nan;101938.50;5029962;28;20036;-83
2023/05/04 03:35:25;;;;;;;5.60;3.27;;;;;;;0.61;nan;101941.84;5044102;28;20048;-81
2023/05/04 03:37:52;;;;;;;8.17;3.20;;;;;;;0.59;nan;101938.25;5055097;28;20428;-85
2023/05/04 03:40:21;;;;;;;9.00;3.90;;;;;;;0.61;nan;101941.84;5045066;28;20052;-82
2023/05/04 03:43:01;;;;;;;5.17;3.47;;;;;;;0.59;nan;101939.19;5050889;28;20037;-80
2023/05/04 03:45:28;;;;;;;5.13;3.20;;;;;;;0.57;nan;101941.69;5053227;28;20033;-81
2023/05/04 03:47:55;;;;;;;7.77;3.47;;;;;;;0.55;nan;101934.66;5033687;28;20509;-80
2023/05/04 03:50:22;;;;;;;5.53;3.60;;;;;;;0.50;nan;101943.97;5048609;28;20047;-82
2023/05/04 03:52:49;;;;;;;8.73;4.10;;;;;;;0.53;nan;101944.13;5069831;28;20440;-80
2023/05/04 03:55:16;;;;;;;8.40;4.10;;;;;;;0.58;nan;101934.78;5052691;28;20054;-81
2023/05/04 03:57:43;;;;;;;6.43;3.20;;;;;;;0.54;nan;101935.50;5032862;28;20028;-81
2023/05/04 04:00:10;;;;;;;7.43;2.97;;;;;;;0.57;nan;101930.41;5046681;28;20613;-80
2023/05/04 04:02:37;;;;;;;6.23;3.23;;;;;;;0.58;nan;101929.56;5031895;28;20051;-80
2023/05/04 04:05:05;;;;;;;6.73;3.43;;;;;;;0.56;nan;101926.91;5047796;28;20047;-83
2023/05/04 04:07:32;;;;;;;6.20;3.33;;;;;;;0.53;nan;101937.22;5047710;28;20045;-85
2023/05/04 04:09:59;;;;;;;6.63;3.60;;;;;;;0.55;nan;101932.94;5044847;28;20048;-80
2023/05/04 04:12:26;;;;;;;6.53;3.10;;;;;;;0.59;nan;101938.25;5019753;28;20040;-84
2023/05/04 04:14:53;;;;;;;4.70;3.20;;;;;;;0.62;nan;101930.59;5044894;28;20043;-80
2023/05/04 04:17:20;;;;;;;4.80;3.70;;;;;;;0.60;nan;101934.88;5037581;28;20047;-83
2023/05/04 04:19:47;;;;;;;9.40;3.40;;;;;;;0.57;nan;101931.28;5053109;28;20054;-81
2023/05/04 04:22:14;;;;;;;5.30;3.17;;;;;;;0.61;nan;101931.44;5037177;28;20055;-81
2023/05/04 04:24:41;;;;;;;6.70;2.87;;;;;;;0.57;nan;101920.88;5052683;28;20041;-84
2023/05/04 04:27:08;;;;;;;6.70;3.37;;;;;;;0.62;nan;101931.50;5034500;28;20050;-80
2023/05/04 04:29:35;;;;;;;6.13;3.27;;;;;;;0.67;nan;101927.34;5039726;28;20051;-82
2023/05/04 04:32:05;;;;;;;8.10;3.70;;;;;;;0.77;nan;101929.50;5053571;28;20089;-80
2023/05/04 04:34:32;;;;;;;8.50;3.60;;;;;;;0.78;nan;101930.41;5034679;28;20037;-80
2023/05/04 04:36:58;;;;;;;7.60;3.50;;;;;;;0.81;nan;101941.78;5067418;28;20044;-80
2023/05/04 04:39:26;;;;;;;7.80;3.20;;;;;;;0.87;nan;101940.28;5067199;28;20036;-80
2023/05/04 04:41:53;;;;;;;7.53;3.20;;;;;;;1.03;nan;101940.94;5052565;28;20485;-80
2023/05/04 04:44:19;;;;;;;7.93;3.30;;;;;;;1.03;nan;101938.31;5048236;28;20040;-81
2023/05/04 04:46:47;;;;;;;6.40;3.60;;;;;;;1.04;nan;101940.09;5044020;28;20074;-83
2023/05/04 04:49:16;;;;;;;6.73;3.20;;;;;;;1.04;nan;101937.50;5032944;28;20036;-80
2023/05/04 04:51:43;;;;;;;6.10;3.40;;;;;;;1.00;nan;101934.69;5037294;28;20056;-82
2023/05/04 04:54:10;;;;;;;7.77;3.40;;;;;;;1.06;nan;101932.34;5036261;28;20047;-80
2023/05/04 04:56:40;;;;;;;6.30;3.27;;;;;;;1.19;nan;101937.19;5051513;28;20041;-82
2023/05/04 04:59:08;;;;;;;6.80;3.77;;;;;;;1.38;nan;101930.97;5052668;28;20044;-81
2023/05/04 05:01:36;;;;;;;7.33;3.63;;;;;;;1.63;nan;101938.84;5026721;28;20032;-83
2023/05/04 05:04:04;;;;;;;7.03;3.50;;;;;;;1.83;nan;101926.50;5058723;28;20041;-80
2023/05/04 05:06:30;;;;;;;6.37;2.90;;;;;;;1.93;nan;101935.53;5036592;28;20036;-81
2023/05/04 05:08:57;;;;;;;6.60;3.90;;;;;;;2.01;nan;101928.88;5023084;28;20413;-82
2023/05/04 05:11:24;;;;;;;5.70;3.43;;;;;;;2.02;nan;101917.63;5033678;28;20244;-81
2023/05/04 05:13:51;;;;;;;7.87;3.23;;;;;;;1.95;nan;101920.88;5036753;28;20037;-83
2023/05/04 05:16:18;;;;;;;10.03;3.27;;;;;;;1.91;nan;101924.19;5036514;28;20040;-82
2023/05/04 05:18:45;;;;;;;5.30;3.43;;;;;;;1.97;nan;101920.06;5027791;28;20044;-82
2023/05/04 05:21:12;;;;;;;4.43;2.77;;;;;;;2.08;nan;101920.44;5036839;28;20040;-84
2023/05/04 05:23:39;;;;;;;6.30;3.20;;;;;;;2.06;nan;101919.50;5068028;28;20036;-82
2023/05/04 05:26:06;;;;;;;6.23;3.37;;;;;;;2.20;nan;101919.97;5052324;28;20045;-82
2023/05/04 05:28:33;;;;;;;6.00;2.90;;;;;;;2.43;nan;101920.72;5037179;28;20036;-81
2023/05/04 05:31:00;;;;;;;5.23;2.90;;;;;;;2.56;nan;101922.91;5036187;28;20047;-81
2023/05/04 05:33:27;;;;;;;6.10;3.30;;;;;;;2.58;nan;101921.22;5052967;28;20118;-80
2023/05/04 05:35:54;;;;;;;6.43;2.87;;;;;;;2.92;nan;101923.16;5052600;28;20416;-80
2023/05/04 05:38:21;;;;;;;4.77;3.17;;;;;;;2.95;nan;101915.47;5011451;28;20049;-80
2023/05/04 05:40:48;;;;;;;6.53;3.40;;;;;;;3.24;nan;101912.81;5035584;28;20037;-84
2023/05/04 05:43:15;;;;;;;6.40;2.90;;;;;;;3.36;nan;101919.31;5032509;28;20049;-80
2023/05/04 05:45:42;;;;;;;10.17;3.90;;;;;;;3.64;nan;101920.97;5049466;28;20043;-83
2023/05/04 05:48:09;;;;;;;7.27;2.90;;;;;;;3.78;nan;101907.38;5027219;28;20520;-82
2023/05/04 05:50:36;;;;;;;4.97;2.57;;;;;;;4.73;nan;101910.69;5018321;28;20494;-84
2023/05/04 05:53:03;;;;;;;4.47;2.40;;;;;;;5.68;nan;101910.97;5039568;28;20532;-80
2023/05/04 05:55:30;;;;;;;5.10;2.83;;;;;;;6.35;nan;101912.22;5066103;28;20041;-83
2023/05/04 05:57:57;;;;;;;8.30;3.70;;;;;;;6.46;nan;101917.63;5026409;28;20398;-82
2023/05/04 06:00:24;;;;;;;5.87;2.70;;;;;;;6.91;nan;101912.25;5043393;28;20040;-83
2023/05/04 06:02:52;;;;;;;4.30;2.30;;;;;;;7.32;nan;101918.06;5038202;28;20439;-83
2023/05/04 06:05:19;;;;;;;7.03;2.60;;;;;;;7.80;nan;101919.50;5034086;28;20033;-85
2023/05/04 06:07:46;;;;;;;5.07;2.43;;;;;;;8.61;nan;101927.31;5047046;28;20048;-83
2023/05/04 06:10:14;;;;;;;3.93;2.10;;;;;;;9.86;nan;101918.31;5039014;28;20047;-83
2023/05/04 06:12:41;;;;;;;7.67;2.37;;;;;;;10.72;nan;101915.75;5040944;28;20043;-83
2023/05/04 06:15:08;;;;;;;5.18;2.35;;;;;;;11.32;nan;101907.69;5052214;28;20033;-84
2023/05/04 06:17:35;;;;;;;2.83;1.90;;;;;;;12.38;nan;101904.47;5038206;28;20051;-83
2023/05/04 06:20:02;;;;;;;3.97;2.10;;;;;;;13.27;nan;101897.41;5043501;28;20575;-81
2023/05/04 06:22:30;;;;;;;4.70;1.77;;;;;;;13.83;nan;101909.09;5054655;28;20033;-82
2023/05/04 06:24:57;;;;;;;4.93;2.03;;;;;;;14.40;nan;101896.69;5039025;28;20033;-83
2023/05/04 06:27:30;;;;;;;3.15;1.73;;;;;;;14.94;nan;101888.66;5064450;28;20052;-84
2023/05/04 06:29:57;;;;;;;2.80;1.60;;;;;;;15.18;nan;101890.84;5054608;28;20029;-82
2023/05/04 06:32:24;;;;;;;3.72;1.70;;;;;;;14.97;nan;101885.97;5049823;28;20041;-81
2023/05/04 06:34:53;;;;;;;4.75;1.95;;;;;;;14.94;nan;101888.66;5044341;28;20062;-81
2023/05/04 06:37:20;;;;;;;6.18;2.05;;;;;;;14.02;nan;101871.59;5066177;28;20045;-81
2023/05/04 06:39:47;;;;;;;11.55;2.03;;;;;;;13.92;nan;101880.59;5053037;28;20440;-81
2023/05/04 06:42:14;;;;;;;2.85;1.65;;;;;;;14.04;nan;101879.53;5076490;28;20046;-84
2023/05/04 06:44:41;;;;;;;4.03;2.00;;;;;;;14.23;nan;101875.69;5057697;28;20039;-83
2023/05/04 06:47:08;;;;;;;3.47;1.38;;;;;;;13.87;nan;101879.78;5043138;28;20055;-83
2023/05/04 06:49:35;;;;;;;2.97;2.03;;;;;;;13.22;nan;101879.78;5056976;28;20048;-84
2023/05/04 06:52:02;;;;;;;7.28;2.45;;;;;;;13.26;nan;101871.78;5063074;28;20600;-83
2023/05/04 06:54:30;;;;;;;3.42;2.20;;;;;;;12.89;nan;101858.91;5050732;28;20033;-84
2023/05/04 06:56:57;;;;;;;5.18;1.88;;;;;;;13.04;nan;101865.81;5033825;28;20056;-84
2023/05/04 06:59:24;;;;;;;3.88;2.00;;;;;;;13.09;nan;101875.47;5061384;28;20043;-83
2023/05/04 07:01:51;;;;;;;5.22;2.40;;;;;;;12.95;nan;101873.00;5042748;28;20040;-80
2023/05/04 07:04:22;;;;;;;3.30;2.17;;;;;;;12.85;nan;101873.97;5044838;28;20371;-82
2023/05/04 07:06:49;;;;;;;4.47;1.95;;;;;;;13.08;nan;101875.50;5045682;28;20250;-82
2023/05/04 07:09:19;;;;;;;4.97;2.17;;;;;;;13.06;nan;101871.97;5043884;28;20041;-81
2023/05/04 07:11:47;;;;;;;4.68;1.77;;;;;;;13.70;nan;101874.72;5029549;28;20038;-79
2023/05/04 07:14:14;;;;;;;3.63;1.90;;;;;;;14.18;nan;101872.22;5045687;28;20037;-81
2023/05/04 07:16:41;;;;;;;5.43;2.13;;;;;;;14.30;nan;101876.50;5057862;28;20041;-79
2023/05/04 07:19:09;;;;;;;4.38;1.73;;;;;;;14.34;nan;101871.06;5017552;28;20045;-79
2023/05/04 07:21:36;;;;;;;3.40;1.90;;;;;;;14.30;nan;101876.50;5039233;28;20053;-81
2023/05/04 07:24:04;;;;;;;5.30;2.08;;;;;;;14.39;nan;101855.06;5050869;28;20040;-80
2023/05/04 07:26:31;;;;;;;13.70;2.50;;;;;;;14.71;nan;101861.59;5033940;28;20040;-82
2023/05/04 07:28:58;;;;;;;10.65;2.65;;;;;;;14.95;nan;101850.50;5036802;28;20633;-79
2023/05/04 07:31:25;;;;;;;4.13;1.80;;;;;;;15.12;nan;101853.69;5042230;28;20493;-79
2023/05/04 07:33:54;;;;;;;4.90;2.10;;;;;;;14.72;nan;101864.25;5046617;28;20067;-79
2023/05/04 07:36:23;;;;;;;5.32;1.70;;;;;;;14.84;nan;101853.38;5066945;28;20502;-79
2023/05/04 07:38:53;;;;;;;3.97;2.17;;;;;;;15.01;nan;101854.84;5026528;28;20048;-79
2023/05/04 07:41:20;;;;;;;5.43;2.03;;;;;;;15.06;nan;101852.97;5035494;28;20052;-80
2023/05/04 07:43:47;;;;;;;3.40;1.98;;;;;;;15.29;nan;101849.81;5034692;28;20050;-79
2023/05/04 07:46:15;;;;;;;3.00;1.95;;;;;;;15.05;nan;101841.44;5029604;28;20040;-78
2023/05/04 07:48:42;;;;;;;5.43;2.22;;;;;;;15.55;nan;101835.94;5062053;28;20036;-79
2023/05/04 07:51:13;;;;;;;4.10;2.38;;;;;;;15.52;nan;101841.34;5050811;28;20042;-78
2023/05/04 07:53:41;;;;;;;5.07;1.90;;;;;;;15.64;nan;101844.66;5039800;28;20033;-79
2023/05/04 07:56:10;;;;;;;3.20;2.00;;;;;;;15.19;nan;101847.34;5034703;28;20032;-79
2023/05/04 07:58:37;;;;;;;5.75;2.05;;;;;;;14.91;nan;101844.38;5027003;28;20039;-78
2023/05/04 08:01:04;;;;;;;5.18;2.10;;;;;;;15.51;nan;101836.91;5052822;28;20036;-79
2023/05/04 08:03:31;;;;;;;5.05;1.70;;;;;;;15.87;nan;101843.22;5045063;28;20033;-80
2023/05/04 08:05:57;;;;;;;8.57;2.42;;;;;;;16.21;nan;101836.16;5044394;28;20036;-79
2023/05/04 08:08:24;;;;;;;7.20;1.90;;;;;;;16.27;nan;101832.47;5058930;28;20040;-79
2023/05/04 08:10:52;;;;;;;9.07;2.22;;;;;;;16.49;nan;101827.47;5046959;28;20047;-79
2023/05/04 08:13:19;;;;;;;4.38;2.22;;;;;;;16.22;nan;101819.25;5056549;28;20040;-78
2023/05/04 08:15:46;;;;;;;3.13;1.90;;;;;;;16.59;nan;101807.63;5032602;28;20035;-79
2023/05/04 08:18:13;;;;;;;3.50;1.85;;;;;;;16.45;nan;101815.13;5058010;28;20032;-79
2023/05/04 08:20:40;;;;;;;3.92;2.35;;;;;;;16.69;nan;101813.63;5066507;28;20108;-80
2023/05/04 08:23:07;;;;;;;7.35;2.58;;;;;;;16.17;nan;101817.63;5041651;28;20037;-80
2023/05/04 08:25:34;;;;;;;5.75;3.10;;;;;;;15.91;nan;101823.59;5048800;28;20431;-79
2023/05/04 08:28:01;;;;;;;6.10;2.65;;;;;;;16.46;nan;101822.19;5039050;28;20532;-81
2023/05/04 08:30:27;;;;;;;9.95;2.85;;;;;;;16.58;nan;101828.09;5056003;28;20493;-79
2023/05/04 08:32:55;;;;;;;6.30;2.30;;;;;;;16.21;nan;101822.81;5065929;28;20037;-79
2023/05/04 08:35:26;;;;;;;4.78;2.28;;;;;;;16.50;nan;101831.88;5061168;28;20359;-80
2023/05/04 08:37:53;;;;;;;4.03;2.13;;;;;;;16.69;nan;101810.94;5044429;28;20040;-80
2023/05/04 08:40:22;;;;;;;3.97;2.10;;;;;;;16.49;nan;101814.13;5050889;28;20040;-79
2023/05/04 08:42:51;;;;;;;8.02;2.38;;;;;;;16.33;nan;101811.84;5057910;28;20037;-79
2023/05/04 08:45:18;;;;;;;3.83;2.58;;;;;;;16.49;nan;101816.78;5041761;28;20417;-79
2023/05/04 08:47:45;;;;;;;4.70;2.17;;;;;;;16.79;nan;101815.09;5051025;28;20591;-80
2023/05/04 08:50:12;;;;;;;3.25;2.00;;;;;;;16.93;nan;101814.72;5066432;28;20120;-79
2023/05/04 08:52:45;;;;;;;7.00;2.65;;;;;;;17.27;nan;101806.59;5029865;28;20182;-79
2023/05/04 08:55:12;;;;;;;39.80;5.35;;;;;;;17.52;nan;101810.28;5054541;28;20040;-80
2023/05/04 08:57:42;;;;;;;3.25;1.88;;;;;;;17.82;nan;101804.91;5047003;28;20055;-79
2023/05/04 09:00:10;;;;;;;5.60;2.28;;;;;;;17.97;nan;101799.06;5050303;28;20039;-80
2023/05/04 09:02:38;;;;;;;2.90;2.08;;;;;;;18.16;nan;101794.88;5036537;28;20674;-80
2023/05/04 09:05:07;;;;;;;3.90;2.00;;;;;;;17.91;nan;101802.84;5040043;28;20039;-80
2023/05/04 09:07:34;;;;;;;5.35;2.13;;;;;;;17.85;nan;101807.50;5017903;28;20037;-80
2023/05/04 09:10:02;;;;;;;3.45;1.92;;;;;;;17.86;nan;101812.78;5022543;28;20041;-79
2023/05/04 09:12:30;;;;;;;5.50;2.00;;;;;;;17.82;nan;101813.78;5045570;28;20400;-79
2023/05/04 09:15:00;;;;;;;5.38;2.50;;;;;;;17.61;nan;101811.78;5041083;28;20036;-80
2023/05/04 09:17:28;;;;;;;6.20;2.40;;;;;;;18.25;nan;101802.56;5039991;28;20071;-80
2023/05/04 09:20:02;;;;;;;158.70;14.60;;;;;;;18.60;nan;101799.59;5040096;28;20043;-80
2023/05/04 09:22:29;;;;;;;5.82;2.25;;;;;;;18.94;nan;101797.47;5047295;28;20544;-81
2023/05/04 09:25:10;;;;;;;3.63;2.28;;;;;;;19.08;nan;101780.84;5016659;28;20051;-80
2023/05/04 09:27:41;;;;;;;5.18;1.88;;;;;;;19.16;nan;101777.88;5038036;28;20116;-81
2023/05/04 09:30:11;;;;;;;5.45;1.98;;;;;;;19.11;nan;101775.41;5037062;28;20132;-81
2023/05/04 09:32:46;;;;;;;5.93;1.73;;;;;;;19.08;nan;101776.38;5064388;28;20564;-80
2023/05/04 09:35:16;;;;;;;3.72;2.35;;;;;;;18.51;nan;101764.19;5040464;28;20089;-80
2023/05/04 09:37:56;;;;;;;4.32;1.95;;;;;;;18.83;nan;101763.06;5018983;28;20119;-81
2023/05/04 09:40:36;;;;;;;5.07;2.40;;;;;;;19.16;nan;101749.28;5029214;28;20040;-81
2023/05/04 09:43:05;;;;;;;5.78;1.98;;;;;;;19.35;nan;101757.50;5027101;28;20044;-79
2023/05/04 09:45:39;;;;;;;6.88;2.17;;;;;;;19.45;nan;101747.28;5034709;28;20192;-80
2023/05/04 09:48:18;;;;;;;73.78;8.88;;;;;;;19.77;nan;101748.69;5047322;28;20043;-80
2023/05/04 09:50:48;;;;;;;3.83;2.40;;;;;;;19.36;nan;101743.19;5050777;28;20036;-80
2023/05/04 09:53:15;;;;;;;3.80;1.95;;;;;;;18.73;nan;101747.38;5015779;28;20417;-80
2023/05/04 09:55:45;;;;;;;4.15;1.92;;;;;;;19.41;nan;101747.38;5028782;28;20037;-80
2023/05/04 09:58:15;;;;;;;6.10;2.10;;;;;;;18.90;nan;101734.22;5047031;28;20038;-78
2023/05/04 10:00:43;;;;;;;42.38;5.90;;;;;;;19.20;nan;101742.03;5052829;28;20035;-83
2023/05/04 10:03:11;;;;;;;4.65;2.25;;;;;;;18.86;nan;101737.09;5028029;28;20037;-83
2023/05/04 10:05:38;;;;;;;4.63;2.55;;;;;;;19.51;nan;101736.34;5043443;28;20036;-82
2023/05/04 10:08:05;;;;;;;3.00;1.92;;;;;;;19.79;nan;101725.38;5036031;28;20047;-84
2023/05/04 10:10:33;;;;;;;4.05;2.05;;;;;;;19.73;nan;101722.94;5050457;28;20046;-83
2023/05/04 10:13:00;;;;;;;2.40;1.85;;;;;;;19.34;nan;101721.81;5043664;28;20037;-84
2023/05/04 10:15:27;;;;;;;3.47;2.08;;;;;;;19.44;nan;101724.97;5000179;28;20053;-83
2023/05/04 10:18:08;;;;;;;3.22;2.03;;;;;;;18.94;nan;101719.81;5032122;28;20041;-82
2023/05/04 10:21:14;;;;;;;4.03;2.20;;;;;;;18.30;nan;101719.47;5044555;28;20037;-86
2023/05/04 10:24:06;;;;;;;2.47;1.70;;;;;;;18.91;nan;101713.69;5030946;28;20059;-87
2023/05/04 10:26:52;;;;;;;4.00;2.25;;;;;;;19.64;nan;101710.78;5050644;28;20094;-87
2023/05/04 10:29:21;;;;;;;18.70;3.60;;;;;;;20.05;nan;101709.03;5067159;28;20103;-86
2023/05/04 10:31:49;;;;;;;4.50;1.75;;;;;;;20.26;nan;101709.88;5052522;28;20508;-84
2023/05/04 10:34:33;;;;;;;3.65;1.73;;;;;;;20.25;nan;101710.84;5035639;28;20045;-81
2023/05/04 10:37:01;;;;;;;;;;;;;;;20.28;nan;101702.66;5052221;28;20035;-82
2023/05/04 10:39:32;;;;;;;290.30;34.80;;;;;;;20.49;nan;101687.44;5051207;28;19925;-81
2023/05/04 10:42:06;;;;;;;8.60;3.10;;;;;;;20.72;nan;101698.00;5040070;28;20063;-86
2023/05/04 10:44:36;;;;;;;3.42;2.00;;;;;;;20.45;nan;101686.72;5049670;28;20055;-81
2023/05/04 10:47:04;;;;;;;3.05;1.90;;;;;;;20.79;nan;101679.78;5049574;28;20041;-81
2023/05/04 10:49:33;;;;;;;7.55;2.67;;;;;;;20.97;nan;101673.53;5045295;28;20033;-84
2023/05/04 10:52:11;;;;;;;3.63;2.03;;;;;;;21.07;nan;101673.97;5023614;28;20512;-84
2023/05/04 10:54:40;;;;;;;3.05;1.90;;;;;;;21.01;nan;101667.06;5040143;28;20050;-84
2023/05/04 10:57:12;;;;;;;3.90;1.80;;;;;;;21.05;nan;101651.69;5069768;28;20028;-82
2023/05/04 10:59:40;;;;;;;14.88;2.65;;;;;;;20.38;nan;101668.22;5039427;28;20037;-82
2023/05/04 11:02:07;;;;;;;3.50;1.85;;;;;;;19.75;nan;101654.88;5065011;28;20047;-82
2023/05/04 11:04:35;;;;;;;4.03;1.90;;;;;;;20.40;nan;101656.47;5054405;28;20036;-82
2023/05/04 11:07:05;;;;;;;3.33;2.17;;;;;;;20.79;nan;101647.56;5025446;28;20033;-84
2023/05/04 11:09:36;;;;;;;2.92;2.15;;;;;;;20.48;nan;101651.66;5040657;28;20393;-82
2023/05/04 11:12:06;;;;;;;4.47;1.83;;;;;;;20.63;nan;101652.78;5055186;28;20383;-82
2023/05/04 11:14:36;;;;;;;2.90;1.98;;;;;;;20.86;nan;101645.47;5055089;28;20038;-84
2023/05/04 11:17:11;;;;;;;2.92;2.13;;;;;;;20.76;nan;101643.19;5046066;28;20040;-82
2023/05/04 11:19:53;;;;;;;31.23;5.47;;;;;;;21.00;nan;101633.09;5033631;28;20056;-85
2023/05/04 11:22:20;;;;;;;3.28;1.60;;;;;;;21.01;nan;101636.63;5047563;28;20051;-84
2023/05/04 11:24:47;;;;;;;3.33;1.70;;;;;;;21.01;nan;101626.75;5034556;28;20044;-83
2023/05/04 11:27:22;;;;;;;4.15;1.90;;;;;;;21.08;nan;101630.03;5045344;28;20040;-82
2023/05/04 11:29:57;;;;;;;114.68;12.88;;;;;;;21.21;nan;101631.19;5038309;28;20396;-83
2023/05/04 11:32:33;;;;;;;25.40;4.97;;;;;;;21.42;nan;101631.94;5055174;28;20048;-84
2023/05/04 11:35:01;;;;;;;3.70;1.92;;;;;;;20.82;nan;101612.47;5050414;28;20046;-83
2023/05/04 11:37:28;;;;;;;3.47;2.47;;;;;;;20.89;nan;101613.06;5057990;28;20040;-85
2023/05/04 11:39:55;;;;;;;2.83;1.98;;;;;;;20.98;nan;101618.00;5050158;28;20428;-83
2023/05/04 11:42:23;;;;;;;3.03;1.90;;;;;;;21.18;nan;101627.75;5068104;28;20054;-84
2023/05/04 11:44:51;;;;;;;4.18;1.80;;;;;;;21.30;nan;101624.50;5028638;28;20033;-84
2023/05/04 11:47:18;;;;;;;3.95;2.08;;;;;;;20.96;nan;101618.06;5053209;28;20119;-82
2023/05/04 11:49:51;;;;;;;11.38;10.13;;;;;;;20.82;nan;101620.53;5027492;28;20428;-84
2023/05/04 11:52:23;;;;;;;4.43;3.00;;;;;;;21.04;nan;101612.31;5046320;28;20040;-83